Home   Weather   Germany   Leipzig   Past weeks
Flag for Germany

Past Weather in Leipzig, Saxony, Germany — Yesterday and Last 2 Weeks

Currently: 46 °F. Sprinkles. Passing clouds. (Weather station: Leipzig-Schkeuditz, Germany). See more current weather

Past Weather in Leipzig — Graph

°F

Leipzig Temperature Yesterday

Maximum temperature yesterday: 55 °F (at 3:20 pm)
Minimum temperature yesterday: 37 °F (at 4:50 am)
Average temperature yesterday: 47 °F

High & Low Weather Summary for the Past Weeks

 TemperatureHumidityPressure
High68 °F (Apr 11, 2:50 pm)100% (Apr 5, 12:50 pm)30.39 "Hg (Apr 5, 12:50 pm)
Low28 °F (Apr 5, 11:20 pm)38% (Apr 9, 4:50 pm)29.50 "Hg (Apr 5, 12:20 pm)
Average41 °F77%30.07 "Hg
* Reported Apr 5 3:20 am — Apr 20 3:20 am, Leipzig. Weather by CustomWeather, © 2021

Note: Actual official high and low records may vary slightly from our data, if they occured in-between our weather recording intervals... More about our weather records

Leipzig Weather History for the Previous 24 Hours

Scroll right to see more
 ConditionsComfort  
Time TempWeatherWind HumidityBarometerVisibility
3:20 am
Tue, Apr 20
46 °FSprinkles. Passing clouds.7 mph93%30.04 "HgN/A
2:50 am46 °FPassing clouds.6 mph93%30.04 "HgN/A
2:20 am45 °FPassing clouds.8 mph100%30.04 "HgN/A
1:50 am46 °FPassing clouds.7 mph93%30.04 "HgN/A
1:20 am48 °FPassing clouds.6 mph87%30.04 "HgN/A
12:50 am46 °FPassing clouds.5 mph93%30.04 "HgN/A
12:20 am46 °FPassing clouds.5 mph93%30.04 "HgN/A
11:50 pm
Mon, Apr 19
48 °FClear.6 mph87%30.07 "Hg10 mi
11:20 pm48 °FPassing clouds.7 mph87%30.07 "HgN/A
10:50 pm48 °FPassing clouds.7 mph87%30.07 "HgN/A
10:20 pm48 °FSprinkles. Passing clouds.7 mph87%30.07 "HgN/A
9:50 pm48 °FPassing clouds.6 mph87%30.07 "HgN/A
9:20 pm48 °FPassing clouds.7 mph87%30.09 "HgN/A
8:50 pm48 °FClear.8 mph87%30.07 "Hg10 mi
8:20 pm50 °FClear.6 mph82%30.07 "Hg10 mi
7:50 pm52 °FSunny.7 mph77%30.07 "Hg10 mi
7:20 pm54 °FPassing clouds.8 mph77%30.07 "HgN/A
6:50 pm54 °FScattered clouds.8 mph72%30.07 "HgN/A
6:20 pm54 °FPassing clouds.10 mph77%30.07 "HgN/A
5:50 pm54 °FScattered clouds.10 mph77%30.07 "HgN/A
5:20 pm55 °FPassing clouds.5 mph67%30.07 "HgN/A
4:50 pm55 °FScattered clouds.7 mph63%30.07 "HgN/A
4:20 pm55 °FPartly sunny.8 mph67%30.09 "HgN/A
3:50 pm55 °FPassing clouds.7 mph67%30.09 "HgN/A
3:20 pm55 °FPassing clouds.8 mph63%30.09 "HgN/A
2:50 pm54 °FPassing clouds.8 mph67%30.09 "HgN/A
2:20 pm54 °FScattered clouds.7 mph67%30.12 "HgN/A
1:50 pm54 °FScattered clouds.7 mph67%30.09 "HgN/A
1:20 pm54 °FScattered clouds.5 mph67%30.12 "HgN/A
12:50 pm52 °FScattered clouds.6 mph77%30.12 "HgN/A
12:20 pm50 °FPartly sunny.6 mph82%30.12 "HgN/A
11:50 am50 °FPartly sunny.3 mph88%30.12 "Hg6 mi
11:20 am48 °FPartly sunny.6 mph94%30.12 "Hg4 mi
10:50 am46 °FFog.5 mph93%30.12 "Hg1 mi
10:20 am45 °FFog.3 mph100%30.12 "Hg1 mi
9:50 am45 °FFog.3 mph100%30.12 "Hg1 mi
9:20 am43 °FFog.3 mph100%30.12 "Hg1 mi
8:50 am43 °FFog.2 mph100%30.12 "Hg0 mi
8:20 am43 °FFog.2 mph100%30.12 "Hg0 mi
7:50 am41 °FFog.2 mph100%30.12 "Hg0 mi
7:20 am41 °FFog.2 mph100%30.12 "Hg0 mi
6:50 am41 °FFog.1 mph100%30.12 "Hg0 mi
6:20 am41 °FFog.3 mph100%30.12 "Hg0 mi
5:50 am41 °FFog.5 mph100%30.12 "Hg0 mi
5:20 am39 °FFog.8 mph100%30.09 "Hg0 mi
4:50 am37 °FFog.6 mph100%30.09 "Hg0 mi
4:20 am39 °FFog.2 mph100%30.09 "Hg0 mi
Weather by CustomWeather, © 2021

See weather overview